»·PEaware :: N210HM KIFP-KHND

N210HM :: KIFP-KHND

FLIGHT INFORMATION

Flight Status: Arrived
Operator: Privately registered:
United States
More flights under this callsign
Pilot: Steven M. (455)
Aircraft: CESSNA T210 TURBO CENTURION
(T210)
More flights by this aircraft type
Origin: KIFP Laughlin/Bullhead Intl
United States
Destination: KHND Henderson
United States
More flights between these airports :: More routes between these airports
Route: +EED V237 BLD
File this flight plan on PilotEdge
Remarks:
Altitude:
(Current/Filed)
8,000ft
Speed:
(Current/Filed)
166kts
Departed: 25-Jul-18 09:10 PM
Arrived: 25-Jul-18 09:53 PM
Distance/Time
Traveled:
57nm/0:43
Distance/Time
To Go:
Arrived

Flight Plot

Page will automatically refresh every two minutes.


Map Options




Map Legend


Flown Route
Filed Route
Departure Airport
Arrival Airport
Navaid (VOR, NDB)
Fix

Horizontal Profiles

Position Reports

Time Latitude Longitude Heading Altitude Ground
Speed
25-Jul-18 20:51 35.166058 -114.560195 176 698ft 0kts
25-Jul-18 20:52 35.159758 -114.556367 266 698ft 0kts
25-Jul-18 20:53 35.159758 -114.556367 266 698ft 0kts
25-Jul-18 20:54 35.159758 -114.556367 266 698ft 0kts
25-Jul-18 20:55 35.159758 -114.556368 266 698ft 0kts
25-Jul-18 20:56 35.159758 -114.556368 266 698ft 0kts
25-Jul-18 20:57 35.159758 -114.556368 266 698ft 0kts
25-Jul-18 20:58 35.159758 -114.556368 266 698ft 0kts
25-Jul-18 20:59 35.159758 -114.556368 266 698ft 0kts
25-Jul-18 21:00 35.159758 -114.556368 266 698ft 0kts
25-Jul-18 21:01 35.159758 -114.556368 266 698ft 0kts
25-Jul-18 21:02 35.159758 -114.556368 266 698ft 0kts
25-Jul-18 21:03 35.159758 -114.556368 266 698ft 0kts
25-Jul-18 21:04 35.159758 -114.556368 266 698ft 0kts
25-Jul-18 21:05 35.159537 -114.557311 264 698ft 9kts
25-Jul-18 21:06 35.162303 -114.558536 355 698ft 19kts
25-Jul-18 21:07 35.166471 -114.558938 276 698ft 10kts
25-Jul-18 21:08 35.166431 -114.559054 223 698ft 0kts
25-Jul-18 21:09 35.166431 -114.559053 223 698ft 0kts
25-Jul-18 21:10 35.165877 -114.560179 179 698ft 11kts
25-Jul-18 21:11 35.143258 -114.557857 170 1559ft 105kts
25-Jul-18 21:12 35.112825 -114.552826 171 2598ft 113kts
25-Jul-18 21:13 35.082369 -114.544577 168 3700ft 116kts
25-Jul-18 21:14 35.051528 -114.536514 169 4885ft 112kts
25-Jul-18 21:15 35.021453 -114.528167 169 6041ft 114kts
25-Jul-18 21:16 34.991381 -114.528600 239 7046ft 117kts
25-Jul-18 21:17 35.010948 -114.553200 340 7984ft 133kts
25-Jul-18 21:18 35.052790 -114.566338 343 8003ft 166kts
25-Jul-18 21:19 35.098264 -114.580291 342 8000ft 169kts
25-Jul-18 21:20 35.144007 -114.594508 342 8000ft 170kts
25-Jul-18 21:21 35.189839 -114.608775 342 8000ft 170kts
25-Jul-18 21:22 35.235546 -114.623021 342 8000ft 170kts
25-Jul-18 21:23 35.281435 -114.637349 343 8000ft 171kts
25-Jul-18 21:24 35.327113 -114.651613 343 8000ft 171kts
25-Jul-18 21:25 35.373314 -114.666061 343 8000ft 171kts
25-Jul-18 21:26 35.419570 -114.680549 343 8000ft 172kts
25-Jul-18 21:27 35.466685 -114.695298 343 7818ft 177kts
25-Jul-18 21:28 35.505869 -114.707590 343 7816ft 173kts
25-Jul-18 21:29 35.552244 -114.722182 343 7817ft 172kts
25-Jul-18 21:30 35.597521 -114.736451 344 7955ft 168kts
25-Jul-18 21:31 35.643440 -114.750896 344 7956ft 171kts
25-Jul-18 21:32 35.696145 -114.767612 344 7954ft 166kts
25-Jul-18 21:33 35.740855 -114.781915 344 7954ft 166kts
25-Jul-18 21:34 35.778194 -114.793868 344 7954ft 167kts
25-Jul-18 21:35 35.823252 -114.808303 343 7954ft 168kts
25-Jul-18 21:36 35.868565 -114.822827 343 7954ft 168kts
25-Jul-18 21:37 35.914704 -114.837434 344 7146ft 170kts
25-Jul-18 21:38 35.959875 -114.851375 347 6178ft 164kts
25-Jul-18 21:39 35.999884 -114.861325 318 5896ft 131kts
25-Jul-18 21:40 35.993509 -114.902393 252 5666ft 119kts
25-Jul-18 21:41 35.984202 -114.947287 270 5798ft 144kts
25-Jul-18 21:42 35.981942 -115.000119 261 5658ft 156kts
25-Jul-18 21:43 35.976457 -115.054073 260 5413ft 162kts
25-Jul-18 21:44 35.977191 -115.102491 336 4445ft 124kts
25-Jul-18 21:45 36.007642 -115.095258 332 4192ft 100kts
25-Jul-18 21:46 36.011927 -115.124113 258 3621ft 86kts
25-Jul-18 21:47 35.995259 -115.134939 178 3028ft 79kts
25-Jul-18 21:48 35.974969 -115.135415 179 2447ft 51kts
25-Jul-18 21:49 35.949583 -115.136540 175 3176ft 101kts
25-Jul-18 21:50 35.956432 -115.114673 0 3644ft 127kts
25-Jul-18 21:51 35.989492 -115.108315 5 3560ft 111kts
25-Jul-18 21:52 35.995801 -115.131438 253 3115ft 78kts
25-Jul-18 21:53 35.977995 -115.135364 181 2447ft 49kts
25-Jul-18 21:54 35.974400 -115.136247 269 2447ft 0kts
25-Jul-18 21:55 35.974105 -115.139046 191 2447ft 7kts
25-Jul-18 21:56 35.973076 -115.139166 264 2447ft 0kts
25-Jul-18 21:57 35.973082 -115.138927 270 2447ft 0kts
25-Jul-18 21:58 35.973082 -115.138927 270 2447ft 0kts
25-Jul-18 21:59 35.973082 -115.138927 270 2447ft 0kts
25-Jul-18 22:00 35.973082 -115.138927 270 2447ft 0kts

Navigation Log

Ident Type
Flight plan parsing failed, navigation log unavailable